sensor_id;sensor_type;location;lat;lon;timestamp;P1;durP1;ratioP1;P2;durP2;ratioP2
17763;SDS011;22245;52.832;13.816;2023-07-24T00:03:11;4.35;;;2.95;;
17763;SDS011;22245;52.832;13.816;2023-07-24T00:06:33;6.50;;;2.80;;
17763;SDS011;22245;52.832;13.816;2023-07-24T00:09:55;3.97;;;3.08;;
17763;SDS011;22245;52.832;13.816;2023-07-24T00:13:18;3.53;;;2.72;;
17763;SDS011;22245;52.832;13.816;2023-07-24T00:16:40;4.25;;;2.60;;
17763;SDS011;22245;52.832;13.816;2023-07-24T00:20:02;4.13;;;3.00;;
17763;SDS011;22245;52.832;13.816;2023-07-24T00:23:23;5.30;;;2.97;;
17763;SDS011;22245;52.832;13.816;2023-07-24T00:26:45;3.47;;;2.78;;
17763;SDS011;22245;52.832;13.816;2023-07-24T00:30:09;3.50;;;2.60;;
17763;SDS011;22245;52.832;13.816;2023-07-24T00:33:31;7.20;;;3.30;;
17763;SDS011;22245;52.832;13.816;2023-07-24T00:36:53;3.47;;;3.00;;
17763;SDS011;22245;52.832;13.816;2023-07-24T00:40:17;3.58;;;2.67;;
17763;SDS011;22245;52.832;13.816;2023-07-24T00:43:39;4.47;;;2.50;;
17763;SDS011;22245;52.832;13.816;2023-07-24T00:47:03;5.15;;;2.80;;
17763;SDS011;22245;52.832;13.816;2023-07-24T00:50:25;4.05;;;2.90;;
17763;SDS011;22245;52.832;13.816;2023-07-24T00:53:48;5.60;;;3.00;;
17763;SDS011;22245;52.832;13.816;2023-07-24T00:57:10;3.78;;;2.55;;
17763;SDS011;22245;52.832;13.816;2023-07-24T01:00:31;6.13;;;3.30;;
17763;SDS011;22245;52.832;13.816;2023-07-24T01:03:56;5.80;;;2.70;;
17763;SDS011;22245;52.832;13.816;2023-07-24T01:07:19;4.30;;;3.22;;
17763;SDS011;22245;52.832;13.816;2023-07-24T01:10:42;3.75;;;2.92;;
17763;SDS011;22245;52.832;13.816;2023-07-24T01:14:04;5.15;;;3.40;;
17763;SDS011;22245;52.832;13.816;2023-07-24T01:17:33;4.32;;;2.67;;
17763;SDS011;22245;52.832;13.816;2023-07-24T01:21:01;5.05;;;2.80;;
17763;SDS011;22245;52.832;13.816;2023-07-24T01:24:24;4.22;;;2.85;;
17763;SDS011;22245;52.832;13.816;2023-07-24T01:27:57;4.93;;;3.17;;
17763;SDS011;22245;52.832;13.816;2023-07-24T01:31:19;5.57;;;3.00;;
17763;SDS011;22245;52.832;13.816;2023-07-24T01:34:41;7.30;;;2.65;;
17763;SDS011;22245;52.832;13.816;2023-07-24T01:38:02;9.40;;;2.80;;
17763;SDS011;22245;52.832;13.816;2023-07-24T01:41:25;4.13;;;2.75;;
17763;SDS011;22245;52.832;13.816;2023-07-24T01:44:52;5.07;;;3.00;;
17763;SDS011;22245;52.832;13.816;2023-07-24T01:48:13;4.57;;;2.80;;
17763;SDS011;22245;52.832;13.816;2023-07-24T01:51:35;3.55;;;2.78;;
17763;SDS011;22245;52.832;13.816;2023-07-24T01:54:56;5.68;;;2.60;;
17763;SDS011;22245;52.832;13.816;2023-07-24T01:58:18;5.15;;;2.92;;
17763;SDS011;22245;52.832;13.816;2023-07-24T02:01:41;4.90;;;2.70;;
17763;SDS011;22245;52.832;13.816;2023-07-24T02:05:03;6.10;;;2.60;;
17763;SDS011;22245;52.832;13.816;2023-07-24T02:08:26;3.92;;;2.58;;
17763;SDS011;22245;52.832;13.816;2023-07-24T02:11:47;3.80;;;3.13;;
17763;SDS011;22245;52.832;13.816;2023-07-24T02:15:09;7.10;;;3.20;;
17763;SDS011;22245;52.832;13.816;2023-07-24T02:18:34;3.83;;;2.80;;
17763;SDS011;22245;52.832;13.816;2023-07-24T02:21:56;8.07;;;2.97;;
17763;SDS011;22245;52.832;13.816;2023-07-24T02:25:18;6.57;;;3.42;;
17763;SDS011;22245;52.832;13.816;2023-07-24T02:28:39;4.22;;;2.90;;
17763;SDS011;22245;52.832;13.816;2023-07-24T02:32:01;3.85;;;2.58;;
17763;SDS011;22245;52.832;13.816;2023-07-24T02:35:24;4.65;;;2.92;;
17763;SDS011;22245;52.832;13.816;2023-07-24T02:38:45;3.78;;;2.80;;
17763;SDS011;22245;52.832;13.816;2023-07-24T02:42:07;3.85;;;2.92;;
17763;SDS011;22245;52.832;13.816;2023-07-24T02:45:28;4.60;;;2.50;;
17763;SDS011;22245;52.832;13.816;2023-07-24T02:48:50;5.20;;;2.92;;
17763;SDS011;22245;52.832;13.816;2023-07-24T02:52:14;5.78;;;2.40;;
17763;SDS011;22245;52.832;13.816;2023-07-24T02:55:35;3.60;;;2.80;;
17763;SDS011;22245;52.832;13.816;2023-07-24T02:58:57;3.78;;;2.72;;
17763;SDS011;22245;52.832;13.816;2023-07-24T03:02:18;4.88;;;2.60;;
17763;SDS011;22245;52.832;13.816;2023-07-24T03:05:40;3.28;;;2.58;;
17763;SDS011;22245;52.832;13.816;2023-07-24T03:09:03;3.58;;;2.63;;
17763;SDS011;22245;52.832;13.816;2023-07-24T03:12:25;4.05;;;2.92;;
17763;SDS011;22245;52.832;13.816;2023-07-24T03:15:51;7.65;;;2.80;;
17763;SDS011;22245;52.832;13.816;2023-07-24T03:19:14;4.38;;;2.90;;
17763;SDS011;22245;52.832;13.816;2023-07-24T03:22:37;5.05;;;2.60;;
17763;SDS011;22245;52.832;13.816;2023-07-24T03:26:01;4.38;;;2.88;;
17763;SDS011;22245;52.832;13.816;2023-07-24T03:29:22;4.55;;;2.92;;
17763;SDS011;22245;52.832;13.816;2023-07-24T03:32:43;5.75;;;2.97;;
17763;SDS011;22245;52.832;13.816;2023-07-24T03:36:05;4.88;;;2.75;;
17763;SDS011;22245;52.832;13.816;2023-07-24T03:39:27;4.72;;;2.85;;
17763;SDS011;22245;52.832;13.816;2023-07-24T03:42:50;5.47;;;2.67;;
17763;SDS011;22245;52.832;13.816;2023-07-24T03:46:12;5.90;;;2.95;;
17763;SDS011;22245;52.832;13.816;2023-07-24T03:49:34;6.22;;;2.75;;
17763;SDS011;22245;52.832;13.816;2023-07-24T03:52:55;4.10;;;2.70;;
17763;SDS011;22245;52.832;13.816;2023-07-24T03:56:17;3.20;;;2.13;;
17763;SDS011;22245;52.832;13.816;2023-07-24T03:59:40;4.60;;;2.80;;
17763;SDS011;22245;52.832;13.816;2023-07-24T04:03:02;3.75;;;2.45;;
17763;SDS011;22245;52.832;13.816;2023-07-24T04:06:24;4.13;;;2.20;;
17763;SDS011;22245;52.832;13.816;2023-07-24T04:09:46;4.47;;;2.60;;
17763;SDS011;22245;52.832;13.816;2023-07-24T04:13:08;3.20;;;2.40;;
17763;SDS011;22245;52.832;13.816;2023-07-24T04:16:31;5.43;;;2.30;;
17763;SDS011;22245;52.832;13.816;2023-07-24T04:19:53;3.03;;;2.00;;
17763;SDS011;22245;52.832;13.816;2023-07-24T04:23:15;9.13;;;2.80;;
17763;SDS011;22245;52.832;13.816;2023-07-24T04:26:37;3.25;;;2.17;;
17763;SDS011;22245;52.832;13.816;2023-07-24T04:29:59;2.75;;;2.28;;
17763;SDS011;22245;52.832;13.816;2023-07-24T04:33:23;4.47;;;2.50;;
17763;SDS011;22245;52.832;13.816;2023-07-24T04:36:47;4.18;;;2.38;;
17763;SDS011;22245;52.832;13.816;2023-07-24T04:40:09;2.90;;;2.38;;
17763;SDS011;22245;52.832;13.816;2023-07-24T04:43:31;3.78;;;2.30;;
17763;SDS011;22245;52.832;13.816;2023-07-24T04:46:53;3.30;;;2.40;;
17763;SDS011;22245;52.832;13.816;2023-07-24T04:50:18;5.25;;;2.20;;
17763;SDS011;22245;52.832;13.816;2023-07-24T04:53:39;4.63;;;2.58;;
17763;SDS011;22245;52.832;13.816;2023-07-24T04:57:01;3.58;;;2.25;;
17763;SDS011;22245;52.832;13.816;2023-07-24T05:00:22;3.78;;;2.40;;
17763;SDS011;22245;52.832;13.816;2023-07-24T05:03:44;3.42;;;2.35;;
17763;SDS011;22245;52.832;13.816;2023-07-24T05:07:07;4.05;;;2.42;;
17763;SDS011;22245;52.832;13.816;2023-07-24T05:10:29;2.47;;;2.10;;
17763;SDS011;22245;52.832;13.816;2023-07-24T05:13:56;2.63;;;2.20;;
17763;SDS011;22245;52.832;13.816;2023-07-24T05:17:17;3.28;;;2.50;;
17763;SDS011;22245;52.832;13.816;2023-07-24T05:20:42;3.20;;;2.40;;
17763;SDS011;22245;52.832;13.816;2023-07-24T05:24:06;4.38;;;2.38;;
17763;SDS011;22245;52.832;13.816;2023-07-24T05:27:28;2.55;;;2.10;;
17763;SDS011;22245;52.832;13.816;2023-07-24T05:30:51;3.63;;;2.45;;
17763;SDS011;22245;52.832;13.816;2023-07-24T05:34:12;3.63;;;2.53;;
17763;SDS011;22245;52.832;13.816;2023-07-24T05:37:34;3.00;;;2.20;;
17763;SDS011;22245;52.832;13.816;2023-07-24T05:40:57;4.40;;;2.33;;
17763;SDS011;22245;52.832;13.816;2023-07-24T05:44:19;3.08;;;2.20;;
17763;SDS011;22245;52.832;13.816;2023-07-24T05:47:41;4.07;;;2.70;;
17763;SDS011;22245;52.832;13.816;2023-07-24T05:51:03;4.20;;;2.40;;
17763;SDS011;22245;52.832;13.816;2023-07-24T05:54:25;3.15;;;2.30;;
17763;SDS011;22245;52.832;13.816;2023-07-24T05:57:48;3.30;;;2.28;;
17763;SDS011;22245;52.832;13.816;2023-07-24T06:01:09;3.53;;;2.30;;
17763;SDS011;22245;52.832;13.816;2023-07-24T06:04:31;4.28;;;2.70;;
17763;SDS011;22245;52.832;13.816;2023-07-24T06:07:53;4.22;;;3.10;;
17763;SDS011;22245;52.832;13.816;2023-07-24T06:11:15;3.42;;;2.70;;
17763;SDS011;22245;52.832;13.816;2023-07-24T06:14:39;4.00;;;2.50;;
17763;SDS011;22245;52.832;13.816;2023-07-24T06:18:00;3.03;;;2.63;;
17763;SDS011;22245;52.832;13.816;2023-07-24T06:21:28;3.25;;;2.95;;
17763;SDS011;22245;52.832;13.816;2023-07-24T06:24:50;6.18;;;3.17;;
17763;SDS011;22245;52.832;13.816;2023-07-24T06:28:12;4.40;;;2.90;;
17763;SDS011;22245;52.832;13.816;2023-07-24T06:31:34;3.97;;;3.00;;
17763;SDS011;22245;52.832;13.816;2023-07-24T06:34:57;6.15;;;3.50;;
17763;SDS011;22245;52.832;13.816;2023-07-24T06:38:19;5.68;;;3.00;;
17763;SDS011;22245;52.832;13.816;2023-07-24T06:41:41;3.63;;;2.97;;
17763;SDS011;22245;52.832;13.816;2023-07-24T06:45:04;5.00;;;3.03;;
17763;SDS011;22245;52.832;13.816;2023-07-24T06:48:28;4.30;;;2.80;;
17763;SDS011;22245;52.832;13.816;2023-07-24T06:51:50;3.65;;;2.85;;
17763;SDS011;22245;52.832;13.816;2023-07-24T06:55:12;2.90;;;2.50;;
17763;SDS011;22245;52.832;13.816;2023-07-24T06:58:37;3.22;;;2.70;;
17763;SDS011;22245;52.832;13.816;2023-07-24T07:02:00;3.53;;;2.45;;
17763;SDS011;22245;52.832;13.816;2023-07-24T07:05:23;2.90;;;2.40;;
17763;SDS011;22245;52.832;13.816;2023-07-24T07:08:47;3.78;;;2.60;;
17763;SDS011;22245;52.832;13.816;2023-07-24T07:12:08;3.35;;;2.70;;
17763;SDS011;22245;52.832;13.816;2023-07-24T07:15:31;4.00;;;3.03;;
17763;SDS011;22245;52.832;13.816;2023-07-24T07:18:53;3.28;;;2.55;;
17763;SDS011;22245;52.832;13.816;2023-07-24T07:22:19;2.90;;;2.60;;
17763;SDS011;22245;52.832;13.816;2023-07-24T07:25:40;3.90;;;2.78;;
17763;SDS011;22245;52.832;13.816;2023-07-24T07:29:07;3.25;;;2.95;;
17763;SDS011;22245;52.832;13.816;2023-07-24T07:32:31;3.90;;;2.65;;
17763;SDS011;22245;52.832;13.816;2023-07-24T07:35:53;4.30;;;2.53;;
17763;SDS011;22245;52.832;13.816;2023-07-24T07:39:19;2.67;;;2.38;;
17763;SDS011;22245;52.832;13.816;2023-07-24T07:42:42;3.30;;;2.80;;
17763;SDS011;22245;52.832;13.816;2023-07-24T07:46:09;2.92;;;2.60;;
17763;SDS011;22245;52.832;13.816;2023-07-24T07:49:32;2.63;;;2.42;;
17763;SDS011;22245;52.832;13.816;2023-07-24T07:52:54;4.93;;;2.85;;
17763;SDS011;22245;52.832;13.816;2023-07-24T07:56:17;2.53;;;2.15;;
17763;SDS011;22245;52.832;13.816;2023-07-24T07:59:39;2.10;;;1.90;;
17763;SDS011;22245;52.832;13.816;2023-07-24T08:03:01;4.63;;;2.10;;
17763;SDS011;22245;52.832;13.816;2023-07-24T08:06:23;2.58;;;2.30;;
17763;SDS011;22245;52.832;13.816;2023-07-24T08:09:45;2.72;;;2.03;;
17763;SDS011;22245;52.832;13.816;2023-07-24T08:13:08;2.22;;;1.92;;
17763;SDS011;22245;52.832;13.816;2023-07-24T08:16:29;2.20;;;2.00;;
17763;SDS011;22245;52.832;13.816;2023-07-24T08:19:52;2.80;;;2.50;;
17763;SDS011;22245;52.832;13.816;2023-07-24T08:23:13;2.78;;;2.22;;
17763;SDS011;22245;52.832;13.816;2023-07-24T08:26:35;2.55;;;2.10;;
17763;SDS011;22245;52.832;13.816;2023-07-24T08:29:59;2.22;;;2.03;;
17763;SDS011;22245;52.832;13.816;2023-07-24T08:33:21;3.13;;;2.17;;
17763;SDS011;22245;52.832;13.816;2023-07-24T08:36:43;2.13;;;1.90;;
17763;SDS011;22245;52.832;13.816;2023-07-24T08:40:05;5.95;;;2.38;;
17763;SDS011;22245;52.832;13.816;2023-07-24T08:43:29;3.63;;;2.10;;
17763;SDS011;22245;52.832;13.816;2023-07-24T08:46:55;3.80;;;2.00;;
17763;SDS011;22245;52.832;13.816;2023-07-24T08:50:17;2.78;;;1.75;;
17763;SDS011;22245;52.832;13.816;2023-07-24T08:53:42;5.97;;;1.75;;
17763;SDS011;22245;52.832;13.816;2023-07-24T08:57:05;3.35;;;1.90;;
17763;SDS011;22245;52.832;13.816;2023-07-24T09:00:29;2.45;;;1.85;;
17763;SDS011;22245;52.832;13.816;2023-07-24T09:03:52;2.30;;;1.88;;
17763;SDS011;22245;52.832;13.816;2023-07-24T09:07:14;2.55;;;2.15;;
17763;SDS011;22245;52.832;13.816;2023-07-24T09:10:36;2.30;;;1.98;;
17763;SDS011;22245;52.832;13.816;2023-07-24T09:13:58;3.28;;;2.13;;
17763;SDS011;22245;52.832;13.816;2023-07-24T09:17:19;2.40;;;2.10;;
17763;SDS011;22245;52.832;13.816;2023-07-24T09:20:43;4.15;;;1.70;;
17763;SDS011;22245;52.832;13.816;2023-07-24T09:24:09;2.58;;;2.00;;
17763;SDS011;22245;52.832;13.816;2023-07-24T09:27:32;2.45;;;2.03;;
17763;SDS011;22245;52.832;13.816;2023-07-24T09:30:55;2.63;;;2.17;;
17763;SDS011;22245;52.832;13.816;2023-07-24T09:34:18;2.97;;;2.20;;
17763;SDS011;22245;52.832;13.816;2023-07-24T09:37:41;2.80;;;2.45;;
17763;SDS011;22245;52.832;13.816;2023-07-24T09:41:03;3.95;;;2.33;;
17763;SDS011;22245;52.832;13.816;2023-07-24T09:44:25;2.75;;;2.20;;
17763;SDS011;22245;52.832;13.816;2023-07-24T09:47:48;3.65;;;2.30;;
17763;SDS011;22245;52.832;13.816;2023-07-24T09:51:19;3.00;;;2.40;;
17763;SDS011;22245;52.832;13.816;2023-07-24T09:54:43;2.88;;;2.13;;
17763;SDS011;22245;52.832;13.816;2023-07-24T09:58:10;3.17;;;2.20;;
17763;SDS011;22245;52.832;13.816;2023-07-24T10:01:33;2.58;;;1.90;;
17763;SDS011;22245;52.832;13.816;2023-07-24T10:04:56;2.70;;;2.13;;
17763;SDS011;22245;52.832;13.816;2023-07-24T10:08:18;2.28;;;1.90;;
17763;SDS011;22245;52.832;13.816;2023-07-24T10:11:41;4.68;;;2.10;;
17763;SDS011;22245;52.832;13.816;2023-07-24T10:15:03;2.47;;;2.08;;
17763;SDS011;22245;52.832;13.816;2023-07-24T10:18:27;2.70;;;2.10;;
17763;SDS011;22245;52.832;13.816;2023-07-24T10:21:50;2.00;;;1.70;;
17763;SDS011;22245;52.832;13.816;2023-07-24T10:25:13;3.35;;;2.20;;
17763;SDS011;22245;52.832;13.816;2023-07-24T10:28:37;2.80;;;2.10;;
17763;SDS011;22245;52.832;13.816;2023-07-24T10:32:02;2.78;;;2.03;;
17763;SDS011;22245;52.832;13.816;2023-07-24T10:35:24;2.28;;;2.03;;
17763;SDS011;22245;52.832;13.816;2023-07-24T10:38:47;2.08;;;1.88;;
17763;SDS011;22245;52.832;13.816;2023-07-24T10:42:14;2.88;;;2.05;;
17763;SDS011;22245;52.832;13.816;2023-07-24T10:45:49;3.88;;;2.00;;
17763;SDS011;22245;52.832;13.816;2023-07-24T10:49:12;2.75;;;2.08;;
17763;SDS011;22245;52.832;13.816;2023-07-24T10:52:34;4.35;;;2.33;;
17763;SDS011;22245;52.832;13.816;2023-07-24T10:55:56;2.35;;;1.90;;
17763;SDS011;22245;52.832;13.816;2023-07-24T10:59:17;3.53;;;2.00;;
17763;SDS011;22245;52.832;13.816;2023-07-24T11:02:40;2.65;;;2.10;;
17763;SDS011;22245;52.832;13.816;2023-07-24T11:06:03;3.55;;;2.50;;
17763;SDS011;22245;52.832;13.816;2023-07-24T11:09:33;4.03;;;2.88;;
17763;SDS011;22245;52.832;13.816;2023-07-24T11:12:56;3.42;;;2.35;;
17763;SDS011;22245;52.832;13.816;2023-07-24T11:16:18;3.28;;;2.30;;
17763;SDS011;22245;52.832;13.816;2023-07-24T11:19:40;3.38;;;2.50;;
17763;SDS011;22245;52.832;13.816;2023-07-24T11:23:02;4.07;;;2.67;;
17763;SDS011;22245;52.832;13.816;2023-07-24T11:26:24;4.03;;;2.97;;
17763;SDS011;22245;52.832;13.816;2023-07-24T11:29:47;4.05;;;2.85;;
17763;SDS011;22245;52.832;13.816;2023-07-24T11:33:12;4.50;;;2.80;;
17763;SDS011;22245;52.832;13.816;2023-07-24T11:36:39;4.63;;;3.08;;
17763;SDS011;22245;52.832;13.816;2023-07-24T11:40:02;5.30;;;2.92;;
17763;SDS011;22245;52.832;13.816;2023-07-24T11:43:29;4.93;;;3.00;;
17763;SDS011;22245;52.832;13.816;2023-07-24T11:46:51;4.60;;;3.25;;
17763;SDS011;22245;52.832;13.816;2023-07-24T11:50:18;5.35;;;3.10;;
17763;SDS011;22245;52.832;13.816;2023-07-24T11:53:40;4.30;;;3.08;;
17763;SDS011;22245;52.832;13.816;2023-07-24T11:57:02;4.93;;;3.10;;
17763;SDS011;22245;52.832;13.816;2023-07-24T12:00:24;5.15;;;3.13;;
17763;SDS011;22245;52.832;13.816;2023-07-24T12:03:46;6.28;;;3.80;;
17763;SDS011;22245;52.832;13.816;2023-07-24T12:07:10;5.05;;;3.55;;
17763;SDS011;22245;52.832;13.816;2023-07-24T12:10:35;6.47;;;3.85;;
17763;SDS011;22245;52.832;13.816;2023-07-24T12:13:59;6.60;;;3.67;;
17763;SDS011;22245;52.832;13.816;2023-07-24T12:17:21;5.43;;;3.80;;
17763;SDS011;22245;52.832;13.816;2023-07-24T12:20:42;7.07;;;4.05;;
17763;SDS011;22245;52.832;13.816;2023-07-24T12:24:04;8.75;;;4.18;;
17763;SDS011;22245;52.832;13.816;2023-07-24T12:27:28;5.95;;;3.42;;
17763;SDS011;22245;52.832;13.816;2023-07-24T12:30:49;6.90;;;3.70;;
17763;SDS011;22245;52.832;13.816;2023-07-24T12:34:11;9.30;;;3.83;;
17763;SDS011;22245;52.832;13.816;2023-07-24T12:37:33;6.03;;;3.38;;
17763;SDS011;22245;52.832;13.816;2023-07-24T12:40:55;4.57;;;2.92;;
17763;SDS011;22245;52.832;13.816;2023-07-24T12:44:18;6.15;;;3.00;;
17763;SDS011;22245;52.832;13.816;2023-07-24T12:47:39;5.32;;;3.33;;
17763;SDS011;22245;52.832;13.816;2023-07-24T12:51:01;5.32;;;3.30;;
17763;SDS011;22245;52.832;13.816;2023-07-24T12:54:24;5.50;;;3.60;;
17763;SDS011;22245;52.832;13.816;2023-07-24T12:58:06;5.97;;;3.85;;
17763;SDS011;22245;52.832;13.816;2023-07-24T13:01:29;6.20;;;3.33;;
17763;SDS011;22245;52.832;13.816;2023-07-24T13:04:52;7.47;;;3.60;;
17763;SDS011;22245;52.832;13.816;2023-07-24T13:08:13;6.25;;;3.80;;
17763;SDS011;22245;52.832;13.816;2023-07-24T13:11:38;9.50;;;4.28;;
17763;SDS011;22245;52.832;13.816;2023-07-24T13:14:59;8.70;;;3.97;;
17763;SDS011;22245;52.832;13.816;2023-07-24T13:18:23;6.30;;;3.63;;
17763;SDS011;22245;52.832;13.816;2023-07-24T13:21:48;5.13;;;3.75;;
17763;SDS011;22245;52.832;13.816;2023-07-24T13:25:10;4.15;;;3.10;;
17763;SDS011;22245;52.832;13.816;2023-07-24T13:28:32;5.88;;;3.50;;
17763;SDS011;22245;52.832;13.816;2023-07-24T13:31:54;5.20;;;3.25;;
17763;SDS011;22245;52.832;13.816;2023-07-24T13:35:18;7.63;;;2.80;;
17763;SDS011;22245;52.832;13.816;2023-07-24T13:38:40;7.15;;;3.28;;
17763;SDS011;22245;52.832;13.816;2023-07-24T13:42:02;4.82;;;3.53;;
17763;SDS011;22245;52.832;13.816;2023-07-24T13:45:24;4.00;;;2.95;;
17763;SDS011;22245;52.832;13.816;2023-07-24T13:48:46;6.07;;;2.97;;
17763;SDS011;22245;52.832;13.816;2023-07-24T13:52:09;5.35;;;3.20;;
17763;SDS011;22245;52.832;13.816;2023-07-24T13:55:30;4.25;;;3.05;;
17763;SDS011;22245;52.832;13.816;2023-07-24T13:58:52;4.80;;;3.13;;
17763;SDS011;22245;52.832;13.816;2023-07-24T14:02:14;8.43;;;3.38;;
17763;SDS011;22245;52.832;13.816;2023-07-24T14:05:35;4.72;;;2.78;;
17763;SDS011;22245;52.832;13.816;2023-07-24T14:08:59;5.20;;;3.65;;
17763;SDS011;22245;52.832;13.816;2023-07-24T14:12:21;4.93;;;3.17;;
17763;SDS011;22245;52.832;13.816;2023-07-24T14:15:42;4.70;;;3.13;;
17763;SDS011;22245;52.832;13.816;2023-07-24T14:19:04;4.28;;;3.00;;
17763;SDS011;22245;52.832;13.816;2023-07-24T14:22:26;4.47;;;3.20;;
17763;SDS011;22245;52.832;13.816;2023-07-24T14:25:49;4.10;;;2.90;;
17763;SDS011;22245;52.832;13.816;2023-07-24T14:29:11;4.95;;;3.00;;
17763;SDS011;22245;52.832;13.816;2023-07-24T14:32:34;5.28;;;3.03;;
17763;SDS011;22245;52.832;13.816;2023-07-24T14:35:56;4.20;;;2.85;;
17763;SDS011;22245;52.832;13.816;2023-07-24T14:39:18;4.32;;;2.72;;
17763;SDS011;22245;52.832;13.816;2023-07-24T14:42:41;4.00;;;2.53;;
17763;SDS011;22245;52.832;13.816;2023-07-24T14:46:03;6.03;;;3.13;;
17763;SDS011;22245;52.832;13.816;2023-07-24T14:49:25;3.35;;;2.70;;
17763;SDS011;22245;52.832;13.816;2023-07-24T14:52:46;4.22;;;2.50;;
17763;SDS011;22245;52.832;13.816;2023-07-24T14:56:08;4.63;;;2.70;;
17763;SDS011;22245;52.832;13.816;2023-07-24T14:59:31;3.00;;;2.50;;
17763;SDS011;22245;52.832;13.816;2023-07-24T15:02:53;3.65;;;2.22;;
17763;SDS011;22245;52.832;13.816;2023-07-24T15:06:15;3.78;;;2.60;;
17763;SDS011;22245;52.832;13.816;2023-07-24T15:09:36;3.58;;;2.60;;
17763;SDS011;22245;52.832;13.816;2023-07-24T15:12:58;3.30;;;2.47;;
17763;SDS011;22245;52.832;13.816;2023-07-24T15:16:22;3.95;;;2.65;;
17763;SDS011;22245;52.832;13.816;2023-07-24T15:19:43;4.50;;;2.75;;
17763;SDS011;22245;52.832;13.816;2023-07-24T15:23:05;4.40;;;2.47;;
17763;SDS011;22245;52.832;13.816;2023-07-24T15:26:29;4.82;;;2.83;;
17763;SDS011;22245;52.832;13.816;2023-07-24T15:29:51;5.22;;;3.20;;
17763;SDS011;22245;52.832;13.816;2023-07-24T15:33:14;7.03;;;3.33;;
17763;SDS011;22245;52.832;13.816;2023-07-24T15:36:36;5.18;;;3.05;;
17763;SDS011;22245;52.832;13.816;2023-07-24T15:39:58;4.05;;;2.72;;
17763;SDS011;22245;52.832;13.816;2023-07-24T15:43:20;4.50;;;2.63;;
17763;SDS011;22245;52.832;13.816;2023-07-24T15:46:44;5.43;;;3.20;;
17763;SDS011;22245;52.832;13.816;2023-07-24T15:50:09;4.82;;;2.80;;
17763;SDS011;22245;52.832;13.816;2023-07-24T15:53:30;4.45;;;2.67;;
17763;SDS011;22245;52.832;13.816;2023-07-24T15:56:52;4.50;;;2.47;;
17763;SDS011;22245;52.832;13.816;2023-07-24T16:00:14;5.03;;;2.80;;
17763;SDS011;22245;52.832;13.816;2023-07-24T16:03:36;6.55;;;2.55;;
17763;SDS011;22245;52.832;13.816;2023-07-24T16:06:59;4.38;;;2.50;;
17763;SDS011;22245;52.832;13.816;2023-07-24T16:10:20;3.55;;;2.42;;
17763;SDS011;22245;52.832;13.816;2023-07-24T16:13:42;5.38;;;2.80;;
17763;SDS011;22245;52.832;13.816;2023-07-24T16:17:05;3.92;;;2.50;;
17763;SDS011;22245;52.832;13.816;2023-07-24T16:20:28;6.57;;;2.92;;
17763;SDS011;22245;52.832;13.816;2023-07-24T16:23:51;4.75;;;2.50;;
17763;SDS011;22245;52.832;13.816;2023-07-24T16:27:12;2.85;;;2.33;;
17763;SDS011;22245;52.832;13.816;2023-07-24T16:30:38;2.90;;;2.20;;
17763;SDS011;22245;52.832;13.816;2023-07-24T16:34:01;5.18;;;2.47;;
17763;SDS011;22245;52.832;13.816;2023-07-24T16:37:23;2.78;;;2.08;;
17763;SDS011;22245;52.832;13.816;2023-07-24T16:40:49;2.17;;;1.90;;
17763;SDS011;22245;52.832;13.816;2023-07-24T16:44:11;3.03;;;1.50;;
17763;SDS011;22245;52.832;13.816;2023-07-24T16:47:34;2.40;;;1.67;;
17763;SDS011;22245;52.832;13.816;2023-07-24T16:50:58;3.38;;;1.80;;
17763;SDS011;22245;52.832;13.816;2023-07-24T16:54:20;2.72;;;1.70;;
17763;SDS011;22245;52.832;13.816;2023-07-24T16:57:43;3.50;;;1.60;;
17763;SDS011;22245;52.832;13.816;2023-07-24T17:01:04;3.03;;;1.80;;
17763;SDS011;22245;52.832;13.816;2023-07-24T17:04:27;2.60;;;1.60;;
17763;SDS011;22245;52.832;13.816;2023-07-24T17:07:49;1.80;;;1.45;;
17763;SDS011;22245;52.832;13.816;2023-07-24T17:11:11;2.13;;;1.30;;
17763;SDS011;22245;52.832;13.816;2023-07-24T17:14:33;3.10;;;1.70;;
17763;SDS011;22245;52.832;13.816;2023-07-24T17:17:55;3.42;;;1.83;;
17763;SDS011;22245;52.832;13.816;2023-07-24T17:21:17;2.15;;;1.77;;
17763;SDS011;22245;52.832;13.816;2023-07-24T17:24:39;2.40;;;1.88;;
17763;SDS011;22245;52.832;13.816;2023-07-24T17:28:01;2.05;;;1.85;;
17763;SDS011;22245;52.832;13.816;2023-07-24T17:31:24;2.15;;;1.60;;
17763;SDS011;22245;52.832;13.816;2023-07-24T17:34:46;1.90;;;1.40;;
17763;SDS011;22245;52.832;13.816;2023-07-24T17:38:07;2.53;;;1.77;;
17763;SDS011;22245;52.832;13.816;2023-07-24T17:41:29;2.15;;;1.40;;
17763;SDS011;22245;52.832;13.816;2023-07-24T17:44:51;1.85;;;1.58;;
17763;SDS011;22245;52.832;13.816;2023-07-24T17:48:13;2.17;;;1.65;;
17763;SDS011;22245;52.832;13.816;2023-07-24T17:51:35;1.60;;;1.50;;
17763;SDS011;22245;52.832;13.816;2023-07-24T17:54:57;2.83;;;1.65;;
17763;SDS011;22245;52.832;13.816;2023-07-24T17:58:19;2.28;;;1.60;;
17763;SDS011;22245;52.832;13.816;2023-07-24T18:01:40;2.40;;;1.58;;
17763;SDS011;22245;52.832;13.816;2023-07-24T18:05:04;2.83;;;2.03;;
17763;SDS011;22245;52.832;13.816;2023-07-24T18:08:26;2.90;;;1.70;;
17763;SDS011;22245;52.832;13.816;2023-07-24T18:11:48;3.03;;;1.75;;
17763;SDS011;22245;52.832;13.816;2023-07-24T18:15:09;2.30;;;1.70;;
17763;SDS011;22245;52.832;13.816;2023-07-24T18:18:31;2.17;;;1.65;;
17763;SDS011;22245;52.832;13.816;2023-07-24T18:21:54;3.75;;;1.98;;
17763;SDS011;22245;52.832;13.816;2023-07-24T18:25:15;2.83;;;2.13;;
17763;SDS011;22245;52.832;13.816;2023-07-24T18:28:37;2.70;;;2.15;;
17763;SDS011;22245;52.832;13.816;2023-07-24T18:31:59;3.28;;;2.08;;
17763;SDS011;22245;52.832;13.816;2023-07-24T18:35:21;4.53;;;2.00;;
17763;SDS011;22245;52.832;13.816;2023-07-24T18:38:43;2.65;;;2.05;;
17763;SDS011;22245;52.832;13.816;2023-07-24T18:46:49;3.53;;;2.22;;
17763;SDS011;22245;52.832;13.816;2023-07-24T18:50:30;2.90;;;2.08;;
17763;SDS011;22245;52.832;13.816;2023-07-24T18:53:53;3.05;;;2.20;;
17763;SDS011;22245;52.832;13.816;2023-07-24T18:57:14;4.05;;;2.40;;
17763;SDS011;22245;52.832;13.816;2023-07-24T19:00:36;3.50;;;2.70;;
17763;SDS011;22245;52.832;13.816;2023-07-24T19:03:57;4.65;;;2.40;;
17763;SDS011;22245;52.832;13.816;2023-07-24T19:07:19;6.68;;;2.92;;
17763;SDS011;22245;52.832;13.816;2023-07-24T19:10:43;3.17;;;2.38;;
17763;SDS011;22245;52.832;13.816;2023-07-24T19:14:04;5.75;;;2.70;;
17763;SDS011;22245;52.832;13.816;2023-07-24T19:17:26;4.25;;;2.20;;
17763;SDS011;22245;52.832;13.816;2023-07-24T19:20:47;4.93;;;2.53;;
17763;SDS011;22245;52.832;13.816;2023-07-24T19:24:09;5.50;;;2.75;;
17763;SDS011;22245;52.832;13.816;2023-07-24T19:27:32;6.15;;;2.95;;
17763;SDS011;22245;52.832;13.816;2023-07-24T19:30:54;5.28;;;2.67;;
17763;SDS011;22245;52.832;13.816;2023-07-24T19:34:16;3.90;;;2.90;;
17763;SDS011;22245;52.832;13.816;2023-07-24T19:37:38;6.05;;;2.58;;
17763;SDS011;22245;52.832;13.816;2023-07-24T19:41:00;3.40;;;2.40;;
17763;SDS011;22245;52.832;13.816;2023-07-24T19:44:23;5.82;;;2.67;;
17763;SDS011;22245;52.832;13.816;2023-07-24T19:47:45;4.53;;;2.90;;
17763;SDS011;22245;52.832;13.816;2023-07-24T19:51:07;3.70;;;2.53;;
17763;SDS011;22245;52.832;13.816;2023-07-24T19:54:29;5.35;;;2.75;;
17763;SDS011;22245;52.832;13.816;2023-07-24T19:57:50;5.35;;;2.67;;
17763;SDS011;22245;52.832;13.816;2023-07-24T20:01:13;4.30;;;3.05;;
17763;SDS011;22245;52.832;13.816;2023-07-24T20:04:35;9.52;;;2.65;;
17763;SDS011;22245;52.832;13.816;2023-07-24T20:07:56;6.22;;;2.42;;